Grand Rapids, Ohio
Current Conditions -  °F | °C
As of 1:52 PM on Monday 20 Oct 2014 (Local Time) from KTOL Reporting Station
Light Rain Light Rain  
Wind Chill: 51°   Ceiling: 7000
Heat Index: 51°   Visibility: 5mi
Dew Point: 49°   Wind: 9mph
Humidity: 92%   Direction: 210°SSW
Pressure: 29.8"   Gusts: NA
Location:  41.41°N, 83.86°W
Report Text: KTOL 201752Z 21008KT 5SM -RA BR SCT060 BKN070 OVC090 11/09 A2980 RMK AO2 RAB1656 SLP091 P0004 60004 T01060094 10133 20083 58020 $
Loading
Personal Weather Stations






























Interactive Weather Map
Tropical Storm Tracking
New forecast layout! Learn more

10-Day Weather Forecast

Advertisements
Track Severe Weather on mobile